Accueil
METAR-TAF:

METAR-TAF

Aéroports :

Aéroport de Split

Split, Croatie

latitude: 43-32N, longitude: 016-18E, altitude: 19 m

Observation

Le bulletin a été fait il y a 16 minutes, à 20:00 UTC
Vent 5 kt de nord
Température 17°C
Humidité 55%
Pression 1014 hPa
Visibilité 10 km ou plus
pas de nuages en-dessous de 1500 mètres et pas de cumulonimbus.

METAR: LDSP 312000Z 35005KT CAVOK 17/08 Q1014 NOSIG

Heure: 22:16 (20:16 UTC)

Prévision

Le bulletin a été fait il y a 2 heures et 51 minutes, à 17:25 UTC
Prévision valable du 31 à 18 UTC au 01 à 18 UTC
Vent 6 kt de nord-est
Visibilité 10 km ou plus
Quelques nuages à une hauteur de 5000 ft
Evoluant progressivement
du 01 à 10 UTC au 01 à 12 UTC
Vent 8 kt de sud-ouest
Evoluant progressivement
du 01 à 14 UTC au 01 à 16 UTC
Vent 8 kt de nord-ouest

TAF: LDSP 311725Z 3118/0118 05006KT 9999 FEW050 TX23/0113Z TN14/0104Z BECMG 0110/0112 23008KT BECMG 0114/0116 31008KT

Observations et prévisions météorologiques de plus de 4000 aéroports (messages METAR et TAF).

Les stations disponibles sont représentées par des disques jaunes et rouges sur la carte.

Passer la souris dessus pour voir le nom de la station.

Cliquer dessus pour voir les observations et prévisions météorologiques.

Pour changer de carte: cliquez sur les boutons verts avec une croix noire pour zoomer, sur le bouton vert avec un tiret pour effectuer un zoom arrière, ou sur les flèches vertes pour les cartes adjacentes.


METAR-TAF: